Time;durP1;ratioP1;P1;durP2;ratioP2;P2;SDS_P1;SDS_P2;PMS_P1;PMS_P2;Temp;Humidity;BMP_temperature;BMP_pressure;BME280_temperature;BME280_humidity;BME280_pressure;Samples;Min_cycle;Max_cycle;Signal;HPM_P1;HPM_P2
2022/02/09 10:32:10;;;;;;;13.37;12.17;;;16.00;92.10;;;;;;5127710;28;20561;-85
2022/02/09 10:34:39;;;;;;;13.00;12.00;;;16.10;91.70;;;;;;5127236;27;20505;-85
2022/02/09 10:37:07;;;;;;;13.53;12.53;;;15.90;92.20;;;;;;5127379;27;20464;-86
2022/02/09 10:39:54;;;;;;;13.40;12.50;;;15.90;92.20;;;;;;5127396;27;20477;-86
2022/02/09 10:42:30;;;;;;;12.17;11.57;;;16.20;91.50;;;;;;5127300;27;20460;-85
2022/02/09 10:45:06;;;;;;;12.50;11.60;;;15.70;91.90;;;;;;5127382;27;20987;-84
2022/02/09 10:47:35;;;;;;;12.80;12.10;;;15.30;92.20;;;;;;5127270;27;20471;-85
2022/02/09 10:50:13;;;;;;;13.53;12.60;;;15.60;92.40;;;;;;5127288;27;20516;-85
2022/02/09 10:52:42;;;;;;;13.20;12.40;;;15.80;91.50;;;;;;5127242;27;20552;-85
2022/02/09 10:55:28;;;;;;;14.17;13.27;;;15.40;91.90;;;;;;5126851;27;20823;-85
2022/02/09 10:57:55;;;;;;;13.83;12.93;;;15.40;92.10;;;;;;5127001;27;20779;-85
2022/02/09 11:00:25;;;;;;;13.77;12.77;;;15.50;92.30;;;;;;5127014;27;20441;-84
2022/02/09 11:02:52;;;;;;;13.17;12.03;;;16.20;91.40;;;;;;5126904;27;20472;-84
2022/02/09 11:05:20;;;;;;;12.97;12.13;;;16.40;90.70;;;;;;5126821;27;20444;-84
2022/02/09 11:07:47;;;;;;;13.87;12.80;;;15.70;91.50;;;;;;5127804;27;20452;-83
2022/02/09 11:10:14;;;;;;;13.40;12.37;;;16.00;91.80;;;;;;5126669;27;21010;-84
2022/02/09 11:12:42;;;;;;;14.13;13.23;;;16.50;90.80;;;;;;5114950;27;20445;-83
2022/02/09 11:15:10;;;;;;;12.70;11.80;;;16.60;90.80;;;;;;5112859;28;20437;-84
2022/02/09 11:17:40;;;;;;;12.70;12.00;;;16.30;90.60;;;;;;5112629;28;20508;-84
2022/02/09 11:20:10;;;;;;;14.87;13.80;;;16.20;90.70;;;;;;5113025;28;20471;-84
2022/02/09 11:22:44;;;;;;;13.47;12.57;;;16.30;90.70;;;;;;5112723;28;20445;-84
2022/02/09 11:25:16;;;;;;;12.40;11.57;;;16.40;90.70;;;;;;5112592;28;21036;-83
2022/02/09 11:27:51;;;;;;;13.30;12.60;;;16.70;90.70;;;;;;5112801;28;20453;-83
2022/02/09 11:30:27;;;;;;;13.50;12.80;;;16.90;89.80;;;;;;5113053;28;20567;-83
2022/02/09 11:33:20;;;;;;;14.43;13.30;;;16.90;89.90;;;;;;5112484;27;20845;-83
2022/02/09 11:36:16;;;;;;;12.97;12.37;;;17.00;90.00;;;;;;5112868;28;20464;-83
2022/02/09 11:38:47;;;;;;;13.30;12.40;;;16.70;89.30;;;;;;5112808;28;20534;-82
2022/02/09 11:41:18;;;;;;;12.30;11.60;;;16.50;90.10;;;;;;5112592;28;20453;-82
2022/02/09 11:44:11;;;;;;;11.60;10.90;;;16.70;90.10;;;;;;5112542;28;20532;-82
2022/02/09 11:46:59;;;;;;;12.70;11.90;;;16.80;89.20;;;;;;5112298;28;20501;-81
2022/02/09 12:10:21;;;;;;;14.00;12.80;;;18.80;83.20;;;;;;5111283;28;20484;-82
2022/02/09 12:12:58;;;;;;;12.53;11.63;;;18.60;82.10;;;;;;5112046;28;20484;-82
2022/02/09 12:16:30;;;;;;;12.50;11.90;;;18.40;83.60;;;;;;5111557;28;20445;-81
2022/02/09 12:18:57;;;;;;;12.57;11.90;;;19.10;82.30;;;;;;5048400;28;20531;-82
2022/02/09 12:21:39;;;;;;;12.33;11.57;;;19.40;80.90;;;;;;5111494;28;20436;-83
2022/02/09 12:24:19;;;;;;;14.17;13.13;;;18.90;81.10;;;;;;5110411;28;20863;-83
2022/02/09 12:26:57;;;;;;;13.07;12.00;;;18.60;83.20;;;;;;5111798;28;20444;-83
2022/02/09 12:29:26;;;;;;;11.40;10.80;;;18.30;83.10;;;;;;5111432;28;20642;-82
2022/02/09 12:31:53;;;;;;;11.67;10.80;;;18.00;83.70;;;;;;5111183;28;20669;-83
2022/02/09 12:34:23;;;;;;;12.80;11.90;;;17.70;85.00;;;;;;5111306;28;20457;-83
2022/02/09 12:36:53;;;;;;;11.07;10.53;;;17.30;86.00;;;;;;5111003;28;20445;-83
2022/02/09 12:39:20;;;;;;;12.13;11.13;;;17.40;86.10;;;;;;5111085;28;20532;-83
2022/02/09 12:41:48;;;;;;;11.20;10.50;;;17.60;85.40;;;;;;5111499;28;20441;-83
2022/02/09 12:44:21;;;;;;;11.63;11.13;;;18.40;84.70;;;;;;5111344;28;20441;-82
2022/02/09 12:46:48;;;;;;;11.37;10.77;;;18.40;83.00;;;;;;5111343;28;20864;-81
2022/02/09 12:49:17;;;;;;;11.00;10.40;;;17.60;85.40;;;;;;5111260;28;20822;-81
2022/02/09 12:51:45;;;;;;;11.40;10.80;;;17.20;86.90;;;;;;5111035;28;20486;-81
2022/02/09 12:54:16;;;;;;;11.27;10.63;;;17.30;87.20;;;;;;5110808;27;20453;-81
2022/02/09 12:56:46;;;;;;;10.40;10.00;;;17.80;85.90;;;;;;5110679;28;20449;-81
2022/02/09 12:59:14;;;;;;;10.80;10.30;;;17.60;85.80;;;;;;5110710;28;20453;-81
2022/02/09 13:01:52;;;;;;;10.83;10.23;;;18.00;86.10;;;;;;5110616;28;20895;-81
2022/02/09 13:04:33;;;;;;;12.33;11.73;;;18.20;84.90;;;;;;5110954;28;20449;-81
2022/02/09 13:07:00;;;;;;;11.70;11.10;;;18.20;84.30;;;;;;5110826;28;20924;-83
2022/02/09 13:09:28;;;;;;;12.30;11.70;;;17.70;86.00;;;;;;5110655;28;20452;-82
2022/02/09 13:11:55;;;;;;;11.80;11.20;;;18.00;85.70;;;;;;5110397;28;20681;-82
2022/02/09 13:14:31;;;;;;;12.40;11.70;;;18.40;84.80;;;;;;5110544;28;20917;-81
2022/02/09 13:22:58;;;;;;;11.73;11.23;;;20.00;79.60;;;;;;5101122;28;20429;-80
2022/02/09 13:25:56;;;;;;;12.47;11.97;;;18.80;81.10;;;;;;5110163;28;20618;-81
2022/02/09 13:54:34;;;;;;;10.80;10.40;;;14.30;95.10;;;;;;5077442;28;20783;-81
2022/02/09 14:10:55;;;;;;;9.63;9.13;;;14.20;95.70;;;;;;5089102;28;20478;-80
2022/02/09 14:13:31;;;;;;;10.23;9.63;;;14.30;95.80;;;;;;5089520;28;20819;-79
2022/02/09 14:19:02;;;;;;;10.27;9.50;;;14.30;95.90;;;;;;5089444;28;20932;-80
2022/02/09 14:50:08;;;;;;;10.60;9.80;;;14.30;95.90;;;;;;5093169;28;20822;-81
2022/02/09 14:52:30;;;;;;;9.43;8.93;;;14.30;96.00;;;;;;5092673;28;20500;-82
2022/02/09 14:55:01;;;;;;;10.30;9.80;;;14.40;96.30;;;;;;5092850;28;20933;-81
2022/02/09 14:57:32;;;;;;;10.03;9.43;;;14.30;96.20;;;;;;5092848;28;20450;-81
2022/02/09 15:00:10;;;;;;;10.13;9.63;;;14.20;96.40;;;;;;5092898;28;20448;-81
2022/02/09 15:02:51;;;;;;;10.97;10.47;;;14.10;96.50;;;;;;5092642;28;20469;-81
2022/02/09 15:08:24;;;;;;;10.83;10.10;;;14.20;96.80;;;;;;5092933;28;20434;-81
2022/02/09 15:11:03;;;;;;;11.63;10.83;;;14.20;97.00;;;;;;5092168;28;20576;-80
2022/02/09 15:13:42;;;;;;;11.33;10.73;;;14.10;97.20;;;;;;5092559;28;20449;-79
2022/02/09 15:16:16;;;;;;;10.30;9.80;;;14.10;97.50;;;;;;5092482;28;20720;-79
2022/02/09 15:21:59;;;;;;;11.30;10.43;;;14.00;97.20;;;;;;5092434;28;20492;-79
2022/02/09 15:24:29;;;;;;;11.37;10.40;;;13.90;97.20;;;;;;5092300;28;20438;-79
2022/02/09 15:26:59;;;;;;;11.00;10.40;;;14.00;97.50;;;;;;5092647;28;20450;-79
2022/02/09 15:29:25;;;;;;;11.47;10.57;;;13.90;97.80;;;;;;5093004;28;20454;-80
2022/02/09 15:31:56;;;;;;;10.73;10.23;;;13.90;98.00;;;;;;5091966;28;20841;-80
2022/02/09 15:34:27;;;;;;;11.17;10.57;;;13.90;98.30;;;;;;5092212;28;20454;-80
2022/02/09 15:37:04;;;;;;;11.10;10.50;;;13.80;98.40;;;;;;5092011;28;20680;-80
2022/02/09 15:39:35;;;;;;;11.00;10.20;;;13.80;98.40;;;;;;5092291;28;20477;-80
2022/02/09 15:42:16;;;;;;;10.90;10.30;;;13.80;98.60;;;;;;5092114;28;20458;-80
2022/02/09 15:58:59;;;;;;;12.10;11.30;;;13.40;99.60;;;;;;5091672;28;20940;-79
2022/02/09 16:09:42;;;;;;;10.73;10.23;;;13.00;99.90;;;;;;5091543;28;20463;-79
2022/02/09 16:23:10;;;;;;;12.27;11.27;;;12.40;99.90;;;;;;5091338;28;20429;-80
2022/02/09 16:34:06;;;;;;;11.80;11.20;;;12.00;99.90;;;;;;5091254;28;20426;-79
2022/02/09 16:44:47;;;;;;;12.33;11.20;;;11.30;99.90;;;;;;5091061;28;20425;-78
2022/02/09 16:47:30;;;;;;;12.80;12.00;;;11.20;99.90;;;;;;5090840;28;20944;-79
2022/02/09 16:50:03;;;;;;;12.70;11.57;;;11.20;99.90;;;;;;5090655;28;20507;-81
2022/02/09 16:52:37;;;;;;;14.60;13.67;;;11.10;99.90;;;;;;5090763;28;20485;-79
2022/02/09 16:55:24;;;;;;;14.07;12.80;;;10.90;99.90;;;;;;5090650;28;20504;-80
2022/02/09 17:19:58;;;;;;;15.70;14.33;;;9.90;99.90;;;;;;5090115;28;20935;-79
2022/02/09 17:22:24;;;;;;;16.10;14.50;;;9.60;99.90;;;;;;5089920;28;21007;-79
2022/02/09 17:24:51;;;;;;;14.23;13.30;;;9.40;99.90;;;;;;5090086;28;20971;-79
2022/02/09 17:27:19;;;;;;;13.50;12.50;;;9.30;99.90;;;;;;5090140;28;20945;-79
2022/02/09 17:30:12;;;;;;;12.20;11.40;;;9.30;99.90;;;;;;5090024;28;20955;-79
2022/02/09 17:32:49;;;;;;;12.67;11.80;;;9.20;99.90;;;;;;5089730;28;20512;-79
2022/02/09 17:35:20;;;;;;;11.67;10.70;;;9.00;99.90;;;;;;5090434;28;20457;-79
2022/02/09 17:54:52;;;;;;;13.03;12.23;;;8.30;99.90;;;;;;5089690;28;20430;-79
2022/02/09 17:57:09;;;;;;;12.40;11.53;;;8.10;99.90;;;;;;5089365;28;20652;-79
